createdAt,value
2018-12-03T00:02:39.191Z,99762.50
2018-12-03T00:07:39.443Z,99765.83
2018-12-03T00:12:39.763Z,99759.52
2018-12-03T00:17:40.046Z,99764.40
2018-12-03T00:22:40.819Z,99765.04
2018-12-03T00:27:48.557Z,99759.52
2018-12-03T00:32:48.022Z,99758.61
2018-12-03T00:37:48.618Z,99763.61
2018-12-03T00:42:48.934Z,99759.10
2018-12-03T00:47:49.715Z,99761.89
2018-12-03T00:52:47.071Z,99758.51
2018-12-03T00:57:48.327Z,99758.87
2018-12-03T01:02:46.357Z,99762.17
2018-12-03T01:07:47.019Z,99761.72
2018-12-03T01:12:47.394Z,99753.48
2018-12-03T01:17:48.500Z,99762.77
2018-12-03T01:22:46.063Z,99770.84
2018-12-03T01:27:49.318Z,99777.98
2018-12-03T01:32:46.854Z,99795.13
2018-12-03T01:37:44.581Z,99801.23
2018-12-03T01:42:45.801Z,99797.39
2018-12-03T01:47:44.583Z,99790.30
2018-12-03T01:52:45.252Z,99781.61
2018-12-03T01:57:47.891Z,99780.75
2018-12-03T02:02:48.710Z,99783.03
2018-12-03T02:07:57.635Z,99769.74
2018-12-03T02:12:54.568Z,99773.34
2018-12-03T02:17:55.869Z,99763.34
2018-12-03T02:22:55.989Z,99764.80
2018-12-03T02:27:56.624Z,99763.40
2018-12-03T02:32:57.877Z,99754.94
2018-12-03T02:38:04.310Z,99747.82
2018-12-03T02:43:04.069Z,99746.11
2018-12-03T02:48:05.568Z,99739.48
2018-12-03T02:53:06.433Z,99736.31
2018-12-03T02:58:07.172Z,99732.59
2018-12-03T03:03:07.227Z,99726.66
2018-12-03T03:08:09.870Z,99712.98
2018-12-03T03:13:10.550Z,99693.64
2018-12-03T03:18:10.819Z,99697.95
2018-12-03T03:23:11.631Z,99694.51
2018-12-03T03:28:09.340Z,99681.28
2018-12-03T03:33:10.389Z,99697.10
2018-12-03T03:38:10.442Z,99706.06
2018-12-03T03:43:09.064Z,99709.20
2018-12-03T08:38:54.012Z,99864.11
2018-12-03T08:44:00.140Z,99866.40
2018-12-03T08:49:09.167Z,99873.06
2018-12-03T08:54:08.896Z,99873.94
2018-12-03T08:59:12.465Z,99872.98
2018-12-03T09:04:12.981Z,99874.91
2018-12-03T09:09:21.331Z,99881.58
2018-12-03T09:14:21.291Z,99882.71
2018-12-03T09:19:21.819Z,99877.17
2018-12-03T09:24:24.985Z,99882.17
2018-12-03T09:29:28.484Z,99890.79
2018-12-03T09:34:28.603Z,99881.49
2018-12-03T09:39:29.925Z,99881.44
2018-12-03T09:44:30.291Z,99895.52
2018-12-03T09:49:30.985Z,99902.24
2018-12-03T09:54:29.564Z,99882.43
2018-12-03T09:59:34.218Z,99890.92
2018-12-03T10:04:47.717Z,99893.98
2018-12-03T10:09:52.403Z,99886.86
2018-12-03T10:14:49.138Z,99878.15
2018-12-03T10:19:47.294Z,99877.64
2018-12-03T10:24:44.895Z,99879.28
2018-12-03T10:29:42.921Z,99876.19
2018-12-03T10:34:48.975Z,99863.72
2018-12-03T10:39:54.749Z,99857.38
2018-12-03T10:45:02.297Z,99847.41
2018-12-03T10:50:06.980Z,99850.75
2018-12-03T10:55:14.880Z,99843.23
2018-12-03T11:00:19.971Z,99832.23
2018-12-03T11:05:33.092Z,99845.49
2018-12-03T11:10:28.779Z,99837.60
2018-12-03T11:15:35.430Z,99825.08
2018-12-03T11:20:41.152Z,99828.22
2018-12-03T11:25:38.065Z,99818.61
2018-12-03T11:30:36.610Z,99815.85
2018-12-03T11:35:34.745Z,99809.98
2018-12-03T11:40:33.338Z,99799.97
2018-12-03T11:45:31.994Z,99801.64
2018-12-03T11:50:27.216Z,99793.13
2018-12-03T11:55:26.177Z,99784.95
2018-12-03T12:00:32.687Z,99777.24
2018-12-03T12:05:31.823Z,99766.70
2018-12-03T12:10:26.183Z,99760.88
2018-12-03T12:15:24.817Z,99756.18
2018-12-03T12:20:23.248Z,99764.36
2018-12-03T12:25:21.687Z,99757.04
2018-12-03T12:30:19.986Z,99759.25
2018-12-03T12:35:17.581Z,99750.69
2018-12-03T12:40:15.331Z,99747.19
2018-12-03T12:45:13.359Z,99737.34
2018-12-03T12:49:03.977Z,99738.12
2018-12-03T12:54:01.138Z,99723.53
2018-12-03T12:58:59.803Z,99714.55
2018-12-03T13:03:57.483Z,99697.09
2018-12-03T13:08:56.222Z,99691.69
2018-12-03T13:13:54.530Z,99687.51
2018-12-03T13:18:50.647Z,99675.95
2018-12-03T13:23:48.397Z,99676.27
2018-12-03T13:28:46.672Z,99677.28
2018-12-03T13:33:45.596Z,99682.74
2018-12-03T13:38:48.959Z,99685.91
2018-12-03T13:43:48.119Z,99674.91
2018-12-03T13:48:46.075Z,99676.95
2018-12-03T13:53:46.035Z,99670.23
2018-12-03T13:58:44.655Z,99681.70
2018-12-03T14:03:43.785Z,99663.75
2018-12-03T14:08:41.616Z,99682.15
2018-12-03T14:13:40.738Z,99691.67
2018-12-03T14:18:38.990Z,99697.66
2018-12-03T14:23:38.632Z,99678.57
2018-12-03T14:28:38.113Z,99676.99
2018-12-03T14:33:41.522Z,99667.89
2018-12-03T14:38:49.595Z,99670.59
2018-12-03T14:43:53.315Z,99662.03
2018-12-03T14:48:54.874Z,99663.50
2018-12-03T14:53:58.483Z,99673.28
2018-12-03T14:59:00.894Z,99672.25
2018-12-03T15:04:03.489Z,99671.02
2018-12-03T15:09:12.499Z,99675.80
2018-12-03T15:14:17.815Z,99670.76
2018-12-03T15:19:18.970Z,99673.41
2018-12-03T15:24:26.423Z,99673.44
2018-12-03T15:29:35.100Z,99683.08
2018-12-03T15:34:43.963Z,99674.57
2018-12-03T15:39:44.646Z,99675.36
2018-12-03T15:44:47.507Z,99676.81
2018-12-03T15:49:50.498Z,99682.62
2018-12-03T15:54:50.205Z,99682.05
2018-12-03T15:59:51.604Z,99667.57
2018-12-03T16:04:55.514Z,99683.98
2018-12-03T16:09:54.919Z,99689.33
2018-12-03T16:14:58.241Z,99680.16
2018-12-03T16:20:01.934Z,99689.75
2018-12-03T16:25:03.747Z,99697.16
2018-12-03T16:36:14.165Z,99677.88
2018-12-03T16:41:16.771Z,99680.97
2018-12-03T16:46:25.351Z,99690.40
2018-12-03T16:51:32.769Z,99691.58
2018-12-03T16:56:40.819Z,99692.19
2018-12-03T17:01:42.834Z,99695.02
2018-12-03T17:06:46.322Z,99692.98
2018-12-03T17:11:48.925Z,99697.36
2018-12-03T17:16:52.263Z,99700.30
2018-12-03T17:21:55.488Z,99692.95
2018-12-03T17:26:59.071Z,99692.83
2018-12-03T17:32:02.503Z,99699.28
2018-12-03T17:37:05.862Z,99695.57
2018-12-03T17:42:09.133Z,99701.12
2018-12-03T17:47:11.575Z,99713.33
2018-12-03T17:52:14.884Z,99720.13
2018-12-03T17:57:20.658Z,99720.45
2018-12-03T18:02:22.814Z,99713.47
2018-12-03T18:07:27.307Z,99721.52
2018-12-03T18:12:32.938Z,99717.73
2018-12-03T18:17:35.851Z,99720.52
2018-12-03T18:22:46.559Z,99725.34
2018-12-03T18:27:54.970Z,99724.88
2018-12-03T18:33:05.228Z,99740.45
2018-12-03T18:38:12.120Z,99736.59
2018-12-03T18:43:11.755Z,99745.27
2018-12-03T18:48:22.166Z,99748.25
2018-12-03T18:53:26.801Z,99745.52
2018-12-03T18:58:30.683Z,99747.56
2018-12-03T19:03:42.250Z,99756.36
2018-12-03T19:08:56.481Z,99763.02
2018-12-03T19:14:01.598Z,99780.30
2018-12-03T19:19:07.389Z,99780.98
2018-12-03T19:24:20.775Z,99784.72
2018-12-03T19:29:25.698Z,99788.71
2018-12-03T19:34:33.380Z,99797.95
2018-12-03T19:39:45.336Z,99808.66
2018-12-03T19:44:49.710Z,99810.34
2018-12-03T19:49:57.532Z,99815.34
2018-12-03T19:55:03.784Z,99820.06
2018-12-03T20:00:09.109Z,99839.26
2018-12-03T20:05:14.930Z,99835.58
2018-12-03T20:10:19.783Z,99846.75
2018-12-03T20:15:33.303Z,99866.53
2018-12-03T20:20:41.264Z,99868.19
2018-12-03T20:25:46.800Z,99869.08
2018-12-03T20:31:00.834Z,99878.95
2018-12-03T20:36:08.477Z,99887.61
2018-12-03T20:41:23.096Z,99892.05
2018-12-03T20:46:34.302Z,99898.83
2018-12-03T20:51:39.004Z,99907.63
2018-12-03T20:56:45.097Z,99919.08
2018-12-03T21:01:51.539Z,99921.28
2018-12-03T21:06:59.556Z,99920.70
2018-12-03T21:12:07.676Z,99931.66
2018-12-03T21:17:22.025Z,99945.88
2018-12-03T21:22:29.528Z,99960.55
2018-12-03T21:27:37.887Z,99973.48
2018-12-03T21:32:42.967Z,99987.06
2018-12-03T21:37:54.312Z,100001.14
2018-12-03T21:43:00.287Z,100006.67
2018-12-03T21:48:08.467Z,100023.05
2018-12-03T21:53:16.354Z,100030.37
2018-12-03T21:58:25.936Z,100038.56
2018-12-03T22:03:40.193Z,100048.70
2018-12-03T22:08:48.839Z,100052.72
2018-12-03T22:14:03.778Z,100063.39
2018-12-03T22:19:10.475Z,100078.63
2018-12-03T22:24:19.796Z,100083.28
2018-12-03T22:29:28.836Z,100097.47
2018-12-03T22:34:41.852Z,100114.56
2018-12-03T22:39:53.813Z,100140.48
2018-12-03T22:45:04.317Z,100167.08
2018-12-03T22:50:24.000Z,100183.02
2018-12-03T22:55:39.871Z,100194.75
2018-12-03T23:00:49.946Z,100202.91
2018-12-03T23:06:12.237Z,100225.70
2018-12-03T23:11:30.035Z,100247.32
2018-12-03T23:16:41.266Z,100298.59
2018-12-03T23:22:03.027Z,100318.69
2018-12-03T23:27:30.326Z,100346.78
